Time;durP1;ratioP1;P1;durP2;ratioP2;P2;SDS_P1;SDS_P2;PMS_P1;PMS_P2;Temp;Humidity;BMP_temperature;BMP_pressure;BME280_temperature;BME280_humidity;BME280_pressure;Samples;Min_cycle;Max_cycle;Signal;HPM_P1;HPM_P2
2021/06/02 00:00:12;;;;;;;3.98;1.91;;;;;;;14.84;72.99;100218.27;472564;110;925529;-73
2021/06/02 00:01:17;;;;;;;3.68;1.78;;;;;;;14.86;73.00;100226.27;473135;110;924492;-73
2021/06/02 00:02:21;;;;;;;1.98;1.64;;;;;;;14.86;72.93;100226.27;473757;109;923060;-74
2021/06/02 00:03:36;;;;;;;4.92;1.84;;;;;;;14.88;72.92;100221.36;473404;109;922734;-73
2021/06/02 00:04:55;;;;;;;3.09;1.99;;;;;;;14.89;72.87;100223.84;472556;109;922490;-72
2021/06/02 00:06:00;;;;;;;1.91;1.77;;;;;;;14.89;72.74;100221.09;473324;109;924007;-72
2021/06/02 00:07:09;;;;;;;2.02;1.88;;;;;;;14.88;72.77;100219.45;474519;109;923241;-73
2021/06/02 00:08:12;;;;;;;2.32;1.91;;;;;;;14.88;72.77;100224.11;473369;111;922557;-73
2021/06/02 00:09:17;;;;;;;2.31;2.11;;;;;;;14.88;72.75;100224.95;474702;109;922379;-72
2021/06/02 00:10:21;;;;;;;2.61;1.99;;;;;;;14.88;72.78;100218.62;474081;110;930247;-72
2021/06/02 00:11:25;;;;;;;2.23;1.64;;;;;;;14.89;72.80;100215.59;474974;110;925000;-72
2021/06/02 00:12:36;;;;;;;4.08;2.11;;;;;;;14.91;72.75;100223.59;474857;109;921981;-71
2021/06/02 00:13:54;;;;;;;4.60;2.15;;;;;;;14.91;72.68;100224.42;467140;113;922564;-72
2021/06/02 00:15:03;;;;;;;1.88;1.52;;;;;;;14.92;72.51;100222.52;461364;112;922233;-71
2021/06/02 00:16:09;;;;;;;3.24;1.60;;;;;;;14.90;72.57;100222.76;469538;111;922475;-73
2021/06/02 00:17:14;;;;;;;2.49;2.02;;;;;;;14.90;72.59;100219.18;474641;110;922448;-73
2021/06/02 00:18:19;;;;;;;3.55;2.07;;;;;;;14.90;72.58;100224.67;474674;110;922827;-73
2021/06/02 00:19:24;;;;;;;4.11;1.97;;;;;;;14.90;72.61;100225.50;473091;109;922496;-73
2021/06/02 00:20:29;;;;;;;3.14;1.94;;;;;;;14.92;72.62;100222.52;473199;110;922943;-73
2021/06/02 00:21:33;;;;;;;2.18;1.86;;;;;;;14.92;72.61;100219.77;474076;110;923065;-74
2021/06/02 00:22:38;;;;;;;2.34;1.96;;;;;;;14.93;72.57;100221.44;474119;111;930254;-73
2021/06/02 00:23:42;;;;;;;5.29;2.07;;;;;;;14.93;72.54;100222.27;473574;109;923950;-73
2021/06/02 00:24:45;;;;;;;2.81;1.97;;;;;;;14.95;72.52;100219.25;473492;109;922665;-74
2021/06/02 00:25:49;;;;;;;3.46;1.72;;;;;;;14.94;72.50;100212.12;473561;111;922845;-73
2021/06/02 00:26:58;;;;;;;2.18;1.87;;;;;;;14.93;72.52;100221.44;473780;109;930309;-71
2021/06/02 00:28:02;;;;;;;3.66;2.17;;;;;;;14.94;72.54;100217.61;473681;109;930351;-73
2021/06/02 00:29:07;;;;;;;2.26;1.95;;;;;;;14.96;72.57;100226.41;473261;109;922702;-72
2021/06/02 00:30:12;;;;;;;1.77;1.63;;;;;;;14.97;72.41;100217.09;473614;110;924737;-72
2021/06/02 00:31:16;;;;;;;5.92;1.91;;;;;;;14.96;72.36;100219.01;473573;109;925735;-73
2021/06/02 00:32:21;;;;;;;3.25;2.00;;;;;;;14.93;72.34;100214.03;473734;109;922774;-74
2021/06/02 00:33:25;;;;;;;2.88;1.77;;;;;;;14.91;72.43;100221.69;472363;111;922553;-73
2021/06/02 00:34:29;;;;;;;4.24;1.99;;;;;;;14.92;72.45;100220.61;472973;111;922841;-74
2021/06/02 00:35:34;;;;;;;2.46;1.94;;;;;;;14.92;72.43;100219.77;473805;109;924439;-72
2021/06/02 00:36:43;;;;;;;4.22;2.15;;;;;;;14.93;72.35;100221.44;472990;111;924006;-73
2021/06/02 00:37:48;;;;;;;2.16;1.71;;;;;;;14.92;72.41;100217.03;472894;109;922448;-73
2021/06/02 00:38:52;;;;;;;3.39;2.02;;;;;;;14.93;72.41;100215.95;473905;109;923214;-74
2021/06/02 00:39:57;;;;;;;2.22;1.76;;;;;;;14.92;72.46;100211.53;473187;110;922557;-74
2021/06/02 00:41:02;;;;;;;3.51;2.30;;;;;;;14.92;72.41;100214.28;473439;110;930741;-74
2021/06/02 00:42:06;;;;;;;4.77;1.94;;;;;;;14.93;72.44;100211.30;473615;110;924686;-73
2021/06/02 00:43:10;;;;;;;3.81;1.78;;;;;;;14.94;72.39;100210.18;473302;111;926241;-73
2021/06/02 00:44:16;;;;;;;4.31;2.16;;;;;;;14.93;72.40;100211.30;473580;109;926039;-74
2021/06/02 00:45:20;;;;;;;2.94;2.14;;;;;;;14.95;72.34;100208.27;473484;109;930454;-75
2021/06/02 00:46:26;;;;;;;4.54;2.12;;;;;;;14.94;72.29;100212.12;473405;111;923977;-72
2021/06/02 00:47:30;;;;;;;3.74;1.71;;;;;;;14.94;72.34;100210.18;473669;109;922997;-74
2021/06/02 00:48:36;;;;;;;2.50;1.77;;;;;;;14.95;72.32;100206.36;474085;111;922872;-74
2021/06/02 00:49:42;;;;;;;4.19;1.72;;;;;;;14.96;72.35;100202.53;473265;110;923907;-72
2021/06/02 00:50:49;;;;;;;2.63;2.04;;;;;;;14.97;72.28;100212.44;473294;110;922658;-72
2021/06/02 00:52:06;;;;;;;1.89;1.69;;;;;;;15.11;72.15;100207.40;468649;110;948973;-74
2021/06/02 00:53:10;;;;;;;3.91;1.72;;;;;;;15.00;72.14;100209.17;455214;113;922646;-75
2021/06/02 00:54:15;;;;;;;2.46;1.58;;;;;;;15.00;72.13;100211.92;456638;114;922667;-72
2021/06/02 00:55:20;;;;;;;2.43;1.92;;;;;;;15.01;72.10;100208.09;456159;114;922588;-73
2021/06/02 00:56:42;;;;;;;4.86;1.99;;;;;;;15.01;72.03;100212.75;454821;114;930841;-74
2021/06/02 00:57:48;;;;;;;2.46;1.92;;;;;;;15.01;72.13;100212.75;432795;115;923243;-72
2021/06/02 00:58:53;;;;;;;5.12;3.09;;;;;;;15.02;72.16;100204.27;453230;115;922674;-73
2021/06/02 01:00:04;;;;;;;2.67;2.37;;;;;;;15.02;72.13;100207.02;453934;113;922999;-74
2021/06/02 01:01:09;;;;;;;3.53;2.20;;;;;;;15.04;72.06;100204.03;452864;114;922415;-75
2021/06/02 01:02:18;;;;;;;4.73;2.07;;;;;;;15.05;72.01;100207.61;452804;114;923318;-73
2021/06/02 01:03:25;;;;;;;2.96;1.93;;;;;;;15.06;72.03;100210.08;454503;114;930332;-74
2021/06/02 01:04:29;;;;;;;3.29;1.62;;;;;;;15.08;71.89;100209.83;454105;114;924264;-74
2021/06/02 01:05:33;;;;;;;3.87;1.61;;;;;;;15.09;71.88;100203.27;455248;114;924647;-74
2021/06/02 01:06:41;;;;;;;3.87;2.05;;;;;;;15.09;71.90;100204.09;457423;114;925487;-74
2021/06/02 01:07:52;;;;;;;5.79;2.03;;;;;;;15.12;71.97;100208.23;454973;114;922183;-73
2021/06/02 01:08:59;;;;;;;3.22;2.01;;;;;;;15.14;71.90;100208.82;456230;114;922309;-71
2021/06/02 01:10:07;;;;;;;2.38;1.60;;;;;;;15.16;71.86;100204.72;453766;114;923415;-73
2021/06/02 01:11:15;;;;;;;4.36;1.93;;;;;;;15.19;71.91;100203.40;455038;113;922661;-73
2021/06/02 01:12:21;;;;;;;3.15;1.80;;;;;;;15.21;71.89;100203.98;454965;113;922480;-74
2021/06/02 01:13:26;;;;;;;3.56;1.91;;;;;;;15.23;71.66;100202.63;455727;115;922766;-73
2021/06/02 01:14:30;;;;;;;2.10;2.00;;;;;;;15.23;71.60;100196.30;456104;114;922590;-73
2021/06/02 01:15:34;;;;;;;3.28;2.19;;;;;;;15.23;71.54;100197.13;456475;113;922505;-74
2021/06/02 01:16:40;;;;;;;1.96;1.61;;;;;;;15.24;71.45;100193.31;456083;114;922764;-73
2021/06/02 01:17:45;;;;;;;3.04;2.08;;;;;;;15.24;71.45;100193.31;456639;113;923478;-74
2021/06/02 01:18:50;;;;;;;3.58;1.73;;;;;;;15.26;71.40;100193.06;455309;113;922975;-73
2021/06/02 01:19:57;;;;;;;5.32;2.02;;;;;;;15.27;71.35;100195.53;456649;114;922497;-74
2021/06/02 01:21:02;;;;;;;2.24;1.94;;;;;;;15.28;71.22;100194.45;456155;114;922620;-72
2021/06/02 01:22:05;;;;;;;3.85;2.29;;;;;;;15.27;71.19;100195.53;452964;114;922537;-73
2021/06/02 01:23:10;;;;;;;4.34;2.01;;;;;;;15.28;71.25;100196.36;452280;115;923288;-73
2021/06/02 01:24:15;;;;;;;2.30;2.09;;;;;;;15.28;71.25;100190.88;452376;114;922456;-73
2021/06/02 01:25:22;;;;;;;2.43;1.87;;;;;;;15.27;71.17;100187.30;453399;114;922705;-73
2021/06/02 01:26:30;;;;;;;3.27;2.97;;;;;;;15.26;71.28;100188.41;452135;115;930282;-73
2021/06/02 01:27:33;;;;;;;5.59;3.17;;;;;;;15.25;71.28;100191.40;454780;115;923633;-73
2021/06/02 01:28:37;;;;;;;2.34;1.84;;;;;;;15.24;71.26;100182.32;453183;114;924043;-72
2021/06/02 01:29:44;;;;;;;3.78;2.30;;;;;;;15.25;71.29;100183.99;454830;113;922525;-74
2021/06/02 01:30:51;;;;;;;3.26;2.39;;;;;;;15.26;71.32;100180.16;453366;114;924235;-73
2021/06/02 01:32:21;;;;;;;2.92;2.38;;;;;;;15.25;71.37;100173.00;453559;114;924012;-73
2021/06/02 01:33:41;;;;;;;3.44;2.73;;;;;;;15.24;71.30;100174.08;456122;114;922474;-74
2021/06/02 01:35:00;;;;;;;3.68;2.50;;;;;;;15.24;71.21;100167.76;455549;114;922560;-73
2021/06/02 01:36:07;;;;;;;2.60;2.32;;;;;;;15.20;71.19;100167.45;454216;115;925597;-72
2021/06/02 01:37:48;;;;;;;3.68;2.43;;;;;;;15.19;71.32;100165.78;454768;113;922708;-74
2021/06/02 01:39:20;;;;;;;2.53;2.33;;;;;;;15.17;71.20;100167.94;455717;114;922726;-75
2021/06/02 01:40:42;;;;;;;2.86;2.61;;;;;;;15.12;71.38;100170.62;434220;120;931876;-73
2021/06/02 01:41:59;;;;;;;3.71;2.31;;;;;;;15.10;71.52;100170.06;435150;119;923274;-74
2021/06/02 01:43:19;;;;;;;2.70;1.98;;;;;;;15.20;71.53;100167.45;474034;110;948773;-75
2021/06/02 01:44:35;;;;;;;2.71;1.91;;;;;;;15.07;71.58;100167.81;465955;112;925720;-74
2021/06/02 01:46:04;;;;;;;2.79;2.09;;;;;;;15.07;71.61;100175.22;467190;112;924039;-74
2021/06/02 01:47:30;;;;;;;2.64;2.15;;;;;;;15.08;71.65;100174.97;463283;111;924505;-75
2021/06/02 01:48:56;;;;;;;3.52;1.93;;;;;;;15.10;71.65;100171.98;462056;114;923096;-74
2021/06/02 01:50:22;;;;;;;3.82;2.15;;;;;;;15.08;71.66;100169.48;462601;113;922638;-74
2021/06/02 01:51:50;;;;;;;3.72;2.01;;;;;;;15.08;71.77;100169.48;445508;118;922720;-73
2021/06/02 01:53:06;;;;;;;4.43;2.06;;;;;;;15.11;71.81;100168.12;459219;113;924094;-73
2021/06/02 01:54:20;;;;;;;4.31;1.86;;;;;;;15.14;71.78;100173.95;460568;113;924062;-74
2021/06/02 01:55:53;;;;;;;6.44;1.87;;;;;;;15.16;71.68;100170.97;461447;112;924050;-73
2021/06/02 01:57:12;;;;;;;2.54;1.75;;;;;;;15.16;71.53;100171.77;460271;113;923982;-75
2021/06/02 01:58:41;;;;;;;3.29;1.71;;;;;;;15.11;71.48;100160.72;461531;114;924093;-73
2021/06/02 02:00:06;;;;;;;3.14;2.12;;;;;;;15.07;71.59;100162.32;462163;112;923902;-74
2021/06/02 02:01:40;;;;;;;3.82;2.21;;;;;;;15.03;71.62;100161.17;462181;113;923468;-73
2021/06/02 02:03:08;;;;;;;2.37;1.71;;;;;;;15.00;71.79;100158.92;462259;113;922969;-75
2021/06/02 02:04:50;;;;;;;4.08;2.91;;;;;;;14.97;71.86;100162.19;462771;113;922318;-74
2021/06/02 02:06:31;;;;;;;8.12;2.34;;;;;;;14.96;72.07;100158.61;462593;114;922256;-74
2021/06/02 02:08:12;;;;;;;2.08;1.90;;;;;;;14.97;72.05;100152.04;462588;112;922443;-72
2021/06/02 02:09:31;;;;;;;2.89;1.69;;;;;;;14.97;72.14;100163.02;461283;114;922527;-75
2021/06/02 02:10:44;;;;;;;4.80;1.73;;;;;;;14.98;72.06;100169.34;462460;113;922789;-75
2021/06/02 02:11:48;;;;;;;2.96;1.63;;;;;;;14.98;72.09;100166.60;461786;114;922685;-74
2021/06/02 02:12:55;;;;;;;4.79;1.74;;;;;;;14.99;72.15;100169.10;462891;112;923296;-75
2021/06/02 02:14:28;;;;;;;3.12;1.82;;;;;;;15.01;72.06;100171.57;462772;113;923065;-74
2021/06/02 02:16:10;;;;;;;4.42;1.82;;;;;;;15.03;72.04;100178.48;462741;114;922568;-74
2021/06/02 02:17:29;;;;;;;2.29;1.93;;;;;;;15.05;72.05;100180.95;462742;114;922512;-74
2021/06/02 02:18:55;;;;;;;3.72;1.89;;;;;;;15.09;72.05;100182.13;462253;113;922985;-74
2021/06/02 02:20:04;;;;;;;2.14;1.75;;;;;;;15.12;71.95;100186.27;438174;118;924481;-74
2021/06/02 02:21:33;;;;;;;2.09;1.39;;;;;;;15.13;71.88;100188.77;438411;120;923461;-75
2021/06/02 02:22:43;;;;;;;2.68;1.75;;;;;;;15.15;71.81;100189.36;438372;120;923370;-74
2021/06/02 02:24:05;;;;;;;3.28;1.72;;;;;;;15.16;71.66;100187.44;437796;120;923215;-73
2021/06/02 02:25:34;;;;;;;1.57;1.39;;;;;;;15.27;71.68;100189.23;478994;108;948849;-75
2021/06/02 02:27:13;;;;;;;3.36;1.73;;;;;;;15.16;71.59;100187.44;468425;110;923928;-74
2021/06/02 02:28:23;;;;;;;5.31;2.04;;;;;;;15.16;71.64;100184.70;465746;112;922538;-73
2021/06/02 02:29:47;;;;;;;5.79;1.63;;;;;;;15.15;71.64;100183.86;466138;112;924109;-74
2021/06/02 02:30:54;;;;;;;3.85;1.67;;;;;;;15.17;71.70;100187.16;466394;112;925172;-74
2021/06/02 02:32:18;;;;;;;1.89;1.42;;;;;;;15.19;71.64;100184.17;470338;112;924065;-74
2021/06/02 02:33:54;;;;;;;2.33;1.72;;;;;;;15.21;71.66;100176.52;468829;112;924031;-72
2021/06/02 02:35:19;;;;;;;3.81;1.74;;;;;;;15.22;71.61;100184.48;467491;112;924527;-74
2021/06/02 02:36:46;;;;;;;2.35;1.59;;;;;;;15.25;71.58;100194.14;469256;112;925453;-72
2021/06/02 02:38:09;;;;;;;4.52;1.52;;;;;;;15.27;71.48;100200.22;466948;112;923972;-74
2021/06/02 02:39:32;;;;;;;2.49;1.35;;;;;;;15.25;71.48;100192.23;467303;112;924082;-74
2021/06/02 02:40:48;;;;;;;4.26;1.52;;;;;;;15.25;71.50;100192.23;468320;112;924124;-72
2021/06/02 02:42:04;;;;;;;2.72;1.53;;;;;;;15.24;71.42;100187.81;468798;112;924128;-73
2021/06/02 02:43:11;;;;;;;3.77;3.36;;;;;;;15.22;71.50;100178.98;467649;112;922820;-75
2021/06/02 02:44:35;;;;;;;2.85;2.10;;;;;;;15.23;71.56;100183.41;467419;112;922501;-74
2021/06/02 02:45:49;;;;;;;2.94;1.70;;;;;;;15.26;71.58;100179.33;467446;112;924124;-75
2021/06/02 02:47:21;;;;;;;5.49;1.47;;;;;;;15.38;71.49;100180.04;470987;110;948710;-75
2021/06/02 02:48:38;;;;;;;2.99;1.61;;;;;;;15.29;71.43;100181.55;458817;111;924112;-75
2021/06/02 02:49:53;;;;;;;3.72;1.65;;;;;;;15.30;71.39;100172.23;458682;113;923880;-74
2021/06/02 02:51:13;;;;;;;2.57;1.41;;;;;;;15.30;71.26;100172.23;458381;113;923094;-74
2021/06/02 02:52:36;;;;;;;3.48;1.59;;;;;;;15.28;71.24;100180.72;460406;112;922624;-74
2021/06/02 02:53:53;;;;;;;2.19;1.54;;;;;;;15.24;71.35;100174.08;457759;114;922391;-74
2021/06/02 02:55:18;;;;;;;3.32;1.61;;;;;;;15.25;71.43;100178.50;460871;113;922559;-72
2021/06/02 02:56:32;;;;;;;2.95;1.48;;;;;;;15.24;71.49;100174.08;462060;112;922984;-75
2021/06/02 02:57:45;;;;;;;2.83;1.66;;;;;;;15.26;71.49;100180.16;459909;113;922852;-73
2021/06/02 02:59:08;;;;;;;2.37;1.62;;;;;;;15.26;71.43;100180.16;460075;111;922780;-75
2021/06/02 03:00:18;;;;;;;4.32;1.82;;;;;;;15.27;71.47;100175.50;448251;115;923719;-73
2021/06/02 03:01:45;;;;;;;2.50;1.50;;;;;;;15.36;71.47;100176.70;472535;110;947661;-74
2021/06/02 03:03:01;;;;;;;8.56;1.52;;;;;;;15.28;71.48;100177.97;461992;114;923752;-74
2021/06/02 03:04:18;;;;;;;2.19;1.58;;;;;;;15.28;71.49;100177.97;461579;113;924833;-75
2021/06/02 03:05:28;;;;;;;3.34;1.62;;;;;;;15.30;71.50;100178.56;462606;112;924011;-74
2021/06/02 03:06:43;;;;;;;2.01;1.54;;;;;;;15.30;71.45;100173.06;461549;114;924142;-74
2021/06/02 03:08:10;;;;;;;5.06;1.64;;;;;;;15.31;71.40;100174.73;461710;113;924033;-74
2021/06/02 03:09:20;;;;;;;3.13;1.76;;;;;;;15.31;71.38;100166.48;461459;114;924484;-74
2021/06/02 03:10:28;;;;;;;1.92;1.70;;;;;;;15.29;71.36;100168.66;458096;114;922737;-74
2021/06/02 03:11:52;;;;;;;3.48;1.66;;;;;;;15.30;71.46;100169.48;460935;114;924037;-75
2021/06/02 03:13:06;;;;;;;3.69;1.62;;;;;;;15.30;71.51;100162.08;459745;113;924444;-75
2021/06/02 03:14:25;;;;;;;3.79;2.49;;;;;;;15.33;71.56;100164.30;461710;113;922564;-73
2021/06/02 03:15:41;;;;;;;1.74;1.63;;;;;;;15.36;71.53;100161.05;461144;114;924108;-74
2021/06/02 03:16:56;;;;;;;3.10;2.01;;;;;;;15.40;71.45;100161.36;462328;113;922791;-75
2021/06/02 03:18:18;;;;;;;3.00;1.91;;;;;;;15.41;71.38;100155.63;460548;114;924114;-75
2021/06/02 03:19:26;;;;;;;4.71;1.51;;;;;;;15.42;71.32;100160.03;463249;113;922418;-74
2021/06/02 03:20:34;;;;;;;3.04;1.77;;;;;;;15.42;71.22;100160.03;461968;113;922524;-73
2021/06/02 03:21:44;;;;;;;3.18;1.52;;;;;;;15.42;71.27;100160.03;461184;112;922882;-74
2021/06/02 03:23:17;;;;;;;1.60;1.33;;;;;;;15.45;71.27;100170.50;462028;113;922992;-74
2021/06/02 03:24:53;;;;;;;2.87;1.37;;;;;;;15.47;71.20;100159.26;462334;114;923146;-72
2021/06/02 03:26:09;;;;;;;3.17;1.51;;;;;;;15.47;71.19;100162.00;462183;114;922389;-75
2021/06/02 03:27:23;;;;;;;2.08;1.43;;;;;;;15.47;71.22;100166.67;461899;113;922866;-74
2021/06/02 03:29:02;;;;;;;3.23;1.38;;;;;;;15.48;71.19;100160.09;447527;117;922784;-74
2021/06/02 03:30:26;;;;;;;2.27;1.67;;;;;;;15.49;71.22;100164.50;460568;114;922760;-75
2021/06/02 03:31:48;;;;;;;3.09;1.43;;;;;;;15.49;71.26;100159.01;460939;114;922703;-76
2021/06/02 03:33:28;;;;;;;1.88;1.67;;;;;;;15.50;71.22;100146.91;439583;119;923614;-75
2021/06/02 03:34:53;;;;;;;2.69;1.64;;;;;;;15.48;71.18;100160.09;460762;113;926217;-75
2021/06/02 03:36:09;;;;;;;1.92;1.57;;;;;;;15.45;71.20;100159.51;459949;114;924018;-74
2021/06/02 03:37:46;;;;;;;3.38;1.52;;;;;;;15.43;71.25;100161.70;461223;114;925633;-75
2021/06/02 03:39:15;;;;;;;2.98;1.49;;;;;;;15.41;71.24;100158.37;438832;117;923339;-74
2021/06/02 03:41:01;;;;;;;7.94;1.55;;;;;;;15.49;71.37;100159.84;471447;110;948300;-74
2021/06/02 03:42:10;;;;;;;2.23;1.77;;;;;;;15.37;71.46;100170.13;446785;117;924184;-74
2021/06/02 03:43:38;;;;;;;2.15;1.69;;;;;;;15.36;71.64;100169.30;448538;116;922816;-76
2021/06/02 03:45:01;;;;;;;2.76;1.59;;;;;;;15.51;71.64;100165.06;470868;110;947471;-73
2021/06/02 03:46:25;;;;;;;4.48;1.61;;;;;;;15.40;71.45;100158.62;460262;113;923646;-74
2021/06/02 03:48:03;;;;;;;2.78;2.01;;;;;;;15.38;71.43;100160.81;454524;113;922749;-74
2021/06/02 03:49:22;;;;;;;2.89;1.75;;;;;;;15.39;71.56;100167.94;453430;113;922156;-73
2021/06/02 03:50:30;;;;;;;2.36;1.44;;;;;;;15.39;71.42;100168.77;453835;113;922289;-74
2021/06/02 03:51:50;;;;;;;2.10;1.59;;;;;;;15.39;71.51;100171.52;452833;114;927620;-73
2021/06/02 03:53:23;;;;;;;3.29;1.53;;;;;;;15.39;71.60;100166.02;454810;114;924648;-73
2021/06/02 03:54:39;;;;;;;2.71;1.48;;;;;;;15.41;71.66;100166.61;452532;114;922823;-71
2021/06/02 03:56:08;;;;;;;1.80;1.51;;;;;;;15.57;71.63;100159.40;481523;107;924032;-74
2021/06/02 03:57:32;;;;;;;5.64;1.59;;;;;;;15.49;71.54;100159.01;466852;111;923971;-75
2021/06/02 03:58:40;;;;;;;3.09;1.67;;;;;;;15.51;71.44;100156.81;470545;111;923737;-76
2021/06/02 03:59:47;;;;;;;5.03;2.83;;;;;;;15.54;71.16;100162.67;470336;111;924117;-75
2021/06/02 04:00:57;;;;;;;2.42;1.72;;;;;;;15.54;71.17;100162.67;469249;110;922785;-73
2021/06/02 04:02:13;;;;;;;2.08;1.73;;;;;;;15.54;71.13;100157.18;470912;111;924410;-74
2021/06/02 04:03:22;;;;;;;2.45;1.66;;;;;;;15.54;71.17;100156.34;469694;111;926200;-75
2021/06/02 04:04:39;;;;;;;2.58;1.59;;;;;;;15.54;71.16;100162.67;470803;111;924088;-74
2021/06/02 04:05:55;;;;;;;2.71;1.44;;;;;;;15.56;71.15;100151.41;469404;111;922991;-74
2021/06/02 04:07:07;;;;;;;4.11;1.67;;;;;;;15.58;71.07;100150.08;471005;111;922899;-75
2021/06/02 04:08:26;;;;;;;1.76;1.66;;;;;;;15.60;70.92;100153.38;470154;111;924059;-73
2021/06/02 04:09:40;;;;;;;3.39;2.37;;;;;;;15.63;70.91;100149.30;469876;110;922426;-73
2021/06/02 04:11:19;;;;;;;3.01;2.30;;;;;;;15.62;70.83;100147.62;470805;111;922944;-71
2021/06/02 04:12:45;;;;;;;1.67;1.41;;;;;;;15.63;70.82;100144.63;470771;110;922464;-75
2021/06/02 04:14:00;;;;;;;4.17;1.43;;;;;;;15.62;70.75;100147.62;470560;111;922379;-75
2021/06/02 04:15:06;;;;;;;4.67;1.64;;;;;;;15.61;70.75;100148.71;470509;111;922474;-73
2021/06/02 04:16:14;;;;;;;2.72;1.48;;;;;;;15.62;70.79;100158.63;470410;111;923856;-75
2021/06/02 04:17:21;;;;;;;4.79;1.58;;;;;;;15.62;70.75;100159.45;469935;110;922948;-73
2021/06/02 04:18:29;;;;;;;2.12;1.97;;;;;;;15.64;70.65;100162.78;464989;113;924047;-79
2021/06/02 04:19:34;;;;;;;2.09;1.61;;;;;;;15.64;70.60;100162.78;465824;111;924068;-77
2021/06/02 04:20:41;;;;;;;3.47;1.31;;;;;;;15.66;70.60;100154.26;470389;111;922517;-72
2021/06/02 04:21:47;;;;;;;1.67;1.38;;;;;;;15.68;70.61;100163.09;469594;111;922894;-72
2021/06/02 04:22:54;;;;;;;3.83;1.64;;;;;;;15.69;70.56;100149.09;471389;111;923106;-75
2021/06/02 04:23:59;;;;;;;2.91;1.65;;;;;;;15.69;70.51;100154.59;469882;111;922870;-74
2021/06/02 04:25:05;;;;;;;3.62;1.44;;;;;;;15.70;70.54;100149.93;471256;111;930889;-75
2021/06/02 04:26:11;;;;;;;3.42;1.66;;;;;;;15.71;70.52;100146.90;469496;111;922848;-73
2021/06/02 04:27:17;;;;;;;2.33;1.28;;;;;;;15.73;70.47;100146.65;471980;111;922593;-75
2021/06/02 04:28:22;;;;;;;2.97;1.49;;;;;;;15.74;70.47;100151.06;471717;111;930239;-75
2021/06/02 04:29:27;;;;;;;1.79;1.58;;;;;;;15.75;70.41;100147.23;460645;113;922630;-73
2021/06/02 04:30:34;;;;;;;4.26;1.60;;;;;;;15.77;70.41;100145.03;454001;114;922496;-75
2021/06/02 04:31:40;;;;;;;1.72;1.59;;;;;;;15.77;70.26;100140.37;454169;114;926012;-74
2021/06/02 04:32:46;;;;;;;2.64;1.71;;;;;;;15.77;70.19;100140.37;457670;113;924131;-74
2021/06/02 04:33:54;;;;;;;2.19;1.60;;;;;;;15.78;70.10;100146.70;460975;113;925605;-75
2021/06/02 04:35:00;;;;;;;3.33;1.54;;;;;;;15.78;70.13;100146.70;460954;113;922582;-74
2021/06/02 04:36:11;;;;;;;3.49;1.83;;;;;;;15.79;70.16;100149.20;459577;113;923976;-75
2021/06/02 04:37:16;;;;;;;3.84;1.53;;;;;;;15.80;70.14;100139.03;459945;113;924051;-73
2021/06/02 04:38:20;;;;;;;4.21;1.70;;;;;;;15.79;70.16;100138.20;460536;113;922828;-72
2021/06/02 04:39:25;;;;;;;2.00;1.48;;;;;;;15.80;70.13;100133.53;459644;113;923130;-73
2021/06/02 04:40:30;;;;;;;3.73;1.77;;;;;;;15.80;70.07;100137.12;450739;116;922621;-74
2021/06/02 04:41:38;;;;;;;2.94;1.43;;;;;;;15.80;70.12;100134.37;450657;116;922387;-70
2021/06/02 04:42:41;;;;;;;3.19;1.74;;;;;;;15.79;70.13;100137.37;455459;115;932493;-71
2021/06/02 04:43:47;;;;;;;2.99;1.63;;;;;;;15.79;70.22;100129.13;453600;115;922751;-73
2021/06/02 04:44:51;;;;;;;2.22;1.62;;;;;;;15.81;70.25;100133.28;456192;114;932373;-73
2021/06/02 04:45:57;;;;;;;3.21;1.54;;;;;;;15.82;70.24;100136.87;454286;114;922817;-73
2021/06/02 04:47:03;;;;;;;2.61;2.16;;;;;;;15.83;70.23;100136.58;453605;115;922596;-71
2021/06/02 04:48:07;;;;;;;4.65;2.28;;;;;;;15.84;70.25;100132.75;455564;114;922957;-73
2021/06/02 04:49:13;;;;;;;4.27;1.69;;;;;;;15.85;70.24;100139.08;457176;115;922467;-71
2021/06/02 04:50:33;;;;;;;1.99;1.79;;;;;;;15.88;70.23;100126.75;456445;115;923027;-75
2021/06/02 04:52:01;;;;;;;2.88;2.11;;;;;;;15.88;70.16;100129.50;452847;114;924159;-72
2021/06/02 04:53:45;;;;;;;4.79;2.07;;;;;;;15.87;70.25;100133.33;455973;114;922452;-73
2021/06/02 04:55:10;;;;;;;2.65;1.58;;;;;;;15.85;70.24;100131.66;459613;113;922710;-70
2021/06/02 04:56:46;;;;;;;1.59;1.43;;;;;;;15.84;70.33;100131.91;454221;114;922500;-72
2021/06/02 04:58:23;;;;;;;4.23;1.64;;;;;;;15.85;70.48;100133.58;455826;114;924082;-72
2021/06/02 04:59:56;;;;;;;2.59;1.51;;;;;;;15.85;70.48;100136.33;451609;115;924065;-72
2021/06/02 05:01:26;;;;;;;7.11;1.58;;;;;;;15.87;70.56;100142.41;458371;113;925558;-71
2021/06/02 05:02:46;;;;;;;1.87;1.75;;;;;;;15.95;70.47;100152.09;454470;115;922735;-72
2021/06/02 05:04:06;;;;;;;4.09;1.73;;;;;;;15.95;70.47;100152.09;452875;114;924047;-70
2021/06/02 05:05:44;;;;;;;4.88;2.38;;;;;;;15.97;70.39;100145.25;460656;114;924721;-69
2021/06/02 05:07:04;;;;;;;3.81;2.18;;;;;;;16.00;70.35;100149.38;451933;115;924957;-74
2021/06/02 05:08:46;;;;;;;2.63;1.83;;;;;;;16.01;70.35;100153.80;451602;115;924112;-76
2021/06/02 05:10:16;;;;;;;2.64;1.78;;;;;;;16.05;70.36;100154.92;452158;115;924095;-74
2021/06/02 05:11:26;;;;;;;1.93;1.46;;;;;;;16.08;70.33;100155.25;459510;114;924079;-73
2021/06/02 05:13:01;;;;;;;4.34;1.50;;;;;;;16.11;70.23;100151.97;442499;114;924130;-77
2021/06/02 05:14:11;;;;;;;2.64;1.45;;;;;;;16.14;70.15;100151.47;438661;118;924277;-77
2021/06/02 05:15:52;;;;;;;3.02;1.71;;;;;;;16.16;69.92;100160.27;442092;115;925417;-73
2021/06/02 05:17:02;;;;;;;3.07;1.63;;;;;;;16.16;69.94;100154.77;460863;113;923757;-70
2021/06/02 05:18:40;;;;;;;2.43;1.45;;;;;;;16.28;69.91;100151.84;471550;110;948035;-68
2021/06/02 05:22:50;;;;;;;2.63;1.64;;;;;;;16.17;70.03;100150.92;455257;115;924445;-69
2021/06/02 05:24:11;;;;;;;3.59;1.54;;;;;;;16.21;70.01;100146.55;454912;115;923132;-70
2021/06/02 05:25:49;;;;;;;2.28;1.71;;;;;;;16.23;69.90;100140.80;456022;115;922672;-67
2021/06/02 05:27:06;;;;;;;3.45;1.69;;;;;;;16.25;69.94;100142.20;452721;115;924143;-69
2021/06/02 05:28:25;;;;;;;2.42;1.78;;;;;;;16.28;69.82;100138.08;455547;115;925984;-67
2021/06/02 05:29:55;;;;;;;3.53;1.88;;;;;;;16.28;69.74;100141.66;454717;115;923893;-69
2021/06/02 05:31:21;;;;;;;2.11;1.59;;;;;;;16.28;69.69;100138.08;452400;114;924179;-70
2021/06/02 05:32:58;;;;;;;3.87;1.94;;;;;;;16.25;69.76;100141.38;454224;115;928216;-71
2021/06/02 05:34:27;;;;;;;3.27;2.27;;;;;;;16.26;69.83;100143.04;454419;115;922690;-73
2021/06/02 05:36:05;;;;;;;2.52;1.69;;;;;;;16.26;69.84;100138.34;454488;115;922822;-69
2021/06/02 05:37:34;;;;;;;2.91;1.94;;;;;;;16.26;69.93;100146.59;454499;115;923130;-72
2021/06/02 05:38:42;;;;;;;2.42;1.66;;;;;;;16.27;70.07;100144.67;454855;115;922977;-70
2021/06/02 05:40:08;;;;;;;5.92;1.82;;;;;;;16.30;70.04;100144.16;453869;115;922818;-69
2021/06/02 05:41:36;;;;;;;2.99;1.74;;;;;;;16.32;69.98;100135.66;439569;119;923087;-69
2021/06/02 05:43:15;;;;;;;2.85;1.87;;;;;;;16.34;69.99;100137.03;454708;115;923014;-78
2021/06/02 05:44:35;;;;;;;5.27;1.76;;;;;;;16.36;69.94;100139.53;453891;115;923143;-76
2021/06/02 05:46:07;;;;;;;4.72;1.72;;;;;;;16.37;69.96;100135.69;452412;115;924780;-74
2021/06/02 05:47:48;;;;;;;2.14;1.90;;;;;;;16.36;69.94;100126.61;443545;116;923286;-75
2021/06/02 05:49:30;;;;;;;3.96;1.84;;;;;;;16.36;69.94;100128.52;450479;115;924066;-70
2021/06/02 05:50:41;;;;;;;2.12;1.48;;;;;;;16.36;69.89;100128.52;436473;118;924100;-74
2021/06/02 05:52:15;;;;;;;2.72;1.56;;;;;;;16.32;69.94;100128.20;439751;116;922981;-73